Time;durP1;ratioP1;P1;durP2;ratioP2;P2;SDS_P1;SDS_P2;PMS_P1;PMS_P2;Temp;Humidity;BMP_temperature;BMP_pressure;BME280_temperature;BME280_humidity;BME280_pressure;Samples;Min_cycle;Max_cycle;Signal;HPM_P1;HPM_P2
2022/11/06 00:02:09;;;;;;;;;6.00;3.00;;;;;11.74;69.33;101365.31;4975874;28;72664;-77
2022/11/06 00:04:35;;;;;;;;;6.25;2.75;;;;;11.71;69.26;101365.38;4976939;28;45419;-77
2022/11/06 00:07:00;;;;;;;;;6.75;5.00;;;;;11.69;69.27;101371.53;4975857;28;61532;-76
2022/11/06 00:09:25;;;;;;;;;6.00;2.75;;;;;11.63;69.38;101360.34;4976811;28;45497;-77
2022/11/06 00:11:51;;;;;;;;;3.00;3.00;;;;;11.66;69.51;101367.22;4975768;28;75674;-77
2022/11/06 00:14:17;;;;;;;;;4.25;4.25;;;;;11.65;69.22;101369.88;4976655;28;45999;-77
2022/11/06 00:16:44;;;;;;;;;6.00;4.25;;;;;11.61;69.49;101380.38;4975926;28;69265;-77
2022/11/06 00:19:09;;;;;;;;;5.00;2.50;;;;;11.59;69.86;101376.94;4976784;28;45534;-77
2022/11/06 00:21:35;;;;;;;;;2.75;2.25;;;;;11.59;69.83;101368.28;4958411;28;45349;-77
2022/11/06 00:24:02;;;;;;;;;7.25;6.00;;;;;11.56;69.97;101376.16;4959320;28;45462;-77
2022/11/06 00:26:29;;;;;;;;;8.25;4.00;;;;;11.56;69.53;101369.19;4976766;28;45310;-77
2022/11/06 00:28:55;;;;;;;;;3.25;3.25;;;;;11.58;69.83;101376.97;4959230;28;45333;-77
2022/11/06 00:31:24;;;;;;;;;5.25;2.50;;;;;11.57;70.06;101388.28;4958981;28;46849;-77
2022/11/06 00:33:50;;;;;;;;;4.25;3.00;;;;;11.58;69.79;101396.06;4959047;28;45761;-77
2022/11/06 00:36:21;;;;;;;;;5.50;5.00;;;;;11.57;69.84;101388.28;4958493;28;45341;-77
2022/11/06 00:38:50;;;;;;;;;6.00;3.00;;;;;11.58;69.64;101374.38;4975186;28;45367;-77
2022/11/06 00:41:16;;;;;;;;;5.75;3.25;;;;;11.63;69.88;101377.75;4975219;28;45388;-78
2022/11/06 00:43:42;;;;;;;;;3.00;2.75;;;;;11.62;69.53;101370.78;4958951;28;45356;-77
2022/11/06 00:46:09;;;;;;;;;4.75;2.00;;;;;11.62;69.75;101371.66;4976536;28;45310;-77
2022/11/06 00:48:36;;;;;;;;;7.00;4.25;;;;;11.62;69.62;101370.78;4976565;28;45318;-77
2022/11/06 00:51:06;;;;;;;;;6.50;3.00;;;;;11.62;69.86;101362.97;4958528;28;45385;-77
2022/11/06 00:53:31;;;;;;;;;5.25;3.00;;;;;11.57;69.97;101360.50;4976249;28;45388;-77
2022/11/06 00:56:08;;;;;;;;;3.75;3.75;;;;;11.56;69.93;101369.19;4959127;28;45384;-77
2022/11/06 00:58:33;;;;;;;;;3.75;3.00;;;;;11.61;70.13;101353.44;4976389;28;45478;-77
2022/11/06 01:01:05;;;;;;;;;5.50;3.00;;;;;11.62;69.71;101350.78;4976160;28;46484;-77
2022/11/06 01:03:31;;;;;;;;;5.50;3.00;;;;;11.58;69.70;101349.16;4976051;28;45691;-77
2022/11/06 01:06:05;;;;;;;;;7.00;4.25;;;;;11.56;69.80;101342.25;4975060;28;67449;-77
2022/11/06 01:08:31;;;;;;;;;4.00;2.25;;;;;11.57;70.10;101334.41;4976215;28;45360;-77
2022/11/06 01:10:56;;;;;;;;;4.75;4.75;;;;;11.61;70.31;101336.03;4975921;28;46195;-77
2022/11/06 01:13:22;;;;;;;;;5.25;2.00;;;;;11.62;70.17;101339.50;4976017;28;45354;-77
2022/11/06 01:15:47;;;;;;;;;5.25;2.75;;;;;11.60;70.10;101331.72;4975547;28;60630;-77
2022/11/06 01:18:12;;;;;;;;;3.00;3.00;;;;;11.66;69.77;101314.22;4975401;28;67611;-77
2022/11/06 01:20:38;;;;;;;;;5.00;3.00;;;;;11.68;69.67;101312.41;4989831;28;74322;-77
2022/11/06 01:23:03;;;;;;;;;3.75;2.25;;;;;11.71;69.85;101310.59;4975103;28;64971;-77
2022/11/06 01:25:28;;;;;;;;;4.00;3.50;;;;;11.72;69.49;101311.44;4975639;28;51868;-77
2022/11/06 01:27:54;;;;;;;;;5.75;3.75;;;;;11.72;69.67;101322.75;4990171;28;70419;-77
2022/11/06 01:30:19;;;;;;;;;7.75;2.00;;;;;11.73;69.58;101319.25;4974848;28;72662;-77
2022/11/06 01:32:44;;;;;;;;;4.50;2.50;;;;;11.74;69.64;101320.97;4991399;28;74254;-76
2022/11/06 01:35:09;;;;;;;;;6.00;2.25;;;;;11.73;69.44;101314.03;4978349;28;61602;-77
2022/11/06 01:37:35;;;;;;;;;4.00;2.50;;;;;11.75;69.43;101327.88;4978307;28;64579;-77
2022/11/06 01:40:00;;;;;;;;;5.75;2.25;;;;;11.74;69.36;101330.56;4977983;28;75580;-77
2022/11/06 01:42:25;;;;;;;;;7.00;2.25;;;;;11.76;69.56;101326.16;4978076;28;73150;-78
2022/11/06 01:45:20;;;;;;;;;4.75;3.00;;;;;11.77;69.44;101325.25;4978210;28;69326;-77
2022/11/06 01:47:46;;;;;;;;;6.00;5.00;;;;;11.75;69.55;101312.22;4977992;28;45457;-77
2022/11/06 01:50:14;;;;;;;;;5.00;5.00;;;;;11.73;69.10;101308.81;4977372;28;45979;-77
2022/11/06 01:52:40;;;;;;;;;5.50;3.00;;;;;11.73;69.89;101316.63;4977877;28;45784;-77
2022/11/06 01:55:17;;;;;;;;;5.00;4.00;;;;;11.72;69.55;101307.09;4977914;28;45420;-78
2022/11/06 01:57:43;;;;;;;;;5.50;2.75;;;;;11.71;69.47;101312.34;4967358;28;45580;-77
2022/11/06 02:00:09;;;;;;;;;4.00;2.50;;;;;11.68;69.64;101291.56;4961317;28;45353;-77
2022/11/06 02:02:35;;;;;;;;;4.25;3.00;;;;;11.72;69.17;101288.84;4978585;28;45332;-77
2022/11/06 02:05:00;;;;;;;;;2.50;2.00;;;;;11.71;69.78;101276.69;4961069;28;45624;-77
2022/11/06 02:07:26;;;;;;;;;5.50;3.00;;;;;11.73;69.40;101274.91;4978854;28;45357;-77
2022/11/06 02:09:51;;;;;;;;;6.25;2.50;;;;;11.71;69.30;101271.47;4960339;28;75285;-77
2022/11/06 02:12:21;;;;;;;;;4.25;3.25;;;;;11.76;69.32;101268.78;4978321;28;55746;-77
2022/11/06 02:14:58;;;;;;;;;7.25;3.00;;;;;11.76;69.22;101263.56;4978664;28;45359;-77
2022/11/06 02:17:27;;;;;;;;;2.25;1.75;;;;;11.74;69.28;101250.53;4961248;28;45443;-77
2022/11/06 02:20:01;;;;;;;;;3.00;3.00;;;;;11.76;69.44;101245.31;4978549;28;45502;-77
2022/11/06 02:23:05;;;;;;;;;1.00;1.00;;;;;11.73;69.95;101227.09;4978478;28;45374;-77
2022/11/06 02:25:53;;;;;;;;;3.00;2.50;;;;;11.72;69.19;101228.88;4937524;28;45347;-77
2022/11/06 02:28:35;;;;;;;;;4.25;3.25;;;;;11.71;69.52;101226.28;4921364;28;45361;-78
2022/11/06 02:31:06;;;;;;;;;2.00;1.75;;;;;11.71;69.34;101229.75;4937186;28;45475;-77
2022/11/06 02:33:39;;;;;;;;;5.00;3.00;;;;;11.71;69.52;101239.34;4920935;28;45805;-77
2022/11/06 02:36:11;;;;;;;;;3.00;3.00;;;;;11.67;69.20;101235.09;4937277;28;45502;-77
2022/11/06 02:38:39;;;;;;;;;2.75;2.75;;;;;11.63;69.50;101235.16;4921352;28;45386;-77
2022/11/06 02:41:09;;;;;;;;;2.75;2.75;;;;;11.66;69.27;101241.19;4920902;28;46431;-77
2022/11/06 02:43:38;;;;;;;;;4.25;4.25;;;;;11.69;69.51;101241.13;4937268;28;45560;-77
2022/11/06 02:46:33;;;;;;;;;5.25;2.25;;;;;11.70;69.50;101251.53;4937339;28;45524;-77
2022/11/06 02:49:06;;;;;;;;;2.75;2.00;;;;;11.69;68.99;101247.19;4917054;28;45462;-77
2022/11/06 02:51:36;;;;;;;;;4.25;4.00;;;;;11.72;69.23;101244.53;4921016;28;45419;-77
2022/11/06 02:54:04;;;;;;;;;6.75;2.25;;;;;11.68;68.90;101242.88;4936933;28;45443;-77
2022/11/06 02:56:34;;;;;;;;;5.50;3.00;;;;;11.69;69.07;101244.59;4936965;28;45403;-77
2022/11/06 02:59:08;;;;;;;;;3.50;3.25;;;;;11.69;69.41;101238.53;4920971;28;45399;-77
2022/11/06 03:01:38;;;;;;;;;4.00;3.00;;;;;11.72;69.31;101243.63;4966498;28;45567;-76
2022/11/06 03:04:10;;;;;;;;;5.00;2.00;;;;;11.73;69.14;101238.38;4978548;28;45332;-77
2022/11/06 03:06:41;;;;;;;;;5.00;4.00;;;;;11.78;69.09;101231.31;4978194;28;45340;-77
2022/11/06 03:09:14;;;;;;;;;3.00;2.50;;;;;11.83;69.47;101215.56;4976821;28;45495;-77
2022/11/06 03:11:40;;;;;;;;;6.00;3.00;;;;;11.82;69.22;101200.78;4960266;28;45339;-78
2022/11/06 03:14:20;;;;;;;;;2.50;2.50;;;;;11.82;68.67;101193.81;4975711;28;66110;-77
2022/11/06 03:16:55;;;;;;;;;2.00;2.00;;;;;11.88;69.21;101189.34;4976374;28;45577;-77
2022/11/06 03:19:28;;;;;;;;;6.25;4.25;;;;;11.88;69.00;101169.31;4976491;28;45566;-77
2022/11/06 03:21:59;;;;;;;;;4.25;2.50;;;;;11.82;68.85;101159.91;4977576;28;45648;-78
2022/11/06 03:24:32;;;;;;;;;4.25;3.00;;;;;11.77;68.88;101163.53;4977656;28;45339;-77
2022/11/06 03:27:01;;;;;;;;;6.25;2.00;;;;;11.70;69.03;101181.13;4977626;28;45438;-77
2022/11/06 03:29:48;;;;;;;;;2.00;2.00;;;;;11.66;69.25;101178.63;4976426;28;45563;-77
2022/11/06 03:32:17;;;;;;;;;8.00;3.00;;;;;11.61;69.02;101181.34;4977063;28;45963;-77
2022/11/06 03:35:08;;;;;;;;;4.75;3.00;;;;;11.56;69.33;101181.47;4976192;28;45412;-77
2022/11/06 03:37:41;;;;;;;;;3.00;3.00;;;;;11.51;69.79;101172.91;4954884;28;45434;-77
2022/11/06 03:40:11;;;;;;;;;5.00;3.00;;;;;11.50;69.32;101171.19;4977359;28;45491;-77
2022/11/06 03:42:37;;;;;;;;;2.00;2.00;;;;;11.46;69.47;101159.16;4975906;28;45518;-78
2022/11/06 03:45:07;;;;;;;;;5.50;2.50;;;;;11.43;69.60;101167.88;4976160;28;73111;-77
2022/11/06 03:47:38;;;;;;;;;5.00;2.00;;;;;11.47;69.65;101179.09;4976099;28;45407;-77
2022/11/06 03:50:12;;;;;;;;;2.25;1.75;;;;;11.41;69.63;101177.50;4976201;28;45366;-77
2022/11/06 03:52:43;;;;;;;;;5.00;2.00;;;;;11.44;69.40;101184.41;4977006;28;45604;-77
2022/11/06 03:55:23;;;;;;;;;6.50;3.50;;;;;11.45;69.68;101172.22;4976624;28;45367;-78
2022/11/06 03:58:05;;;;;;;;;4.50;3.00;;;;;11.43;69.67;101141.81;4965034;28;45321;-77
2022/11/06 04:00:33;;;;;;;;;2.00;2.00;;;;;11.42;69.54;101153.16;4975625;28;45366;-77
2022/11/06 04:03:04;;;;;;;;;4.25;2.25;;;;;11.45;69.50;101149.59;4975500;28;47189;-77
2022/11/06 04:05:50;;;;;;;;;7.00;3.00;;;;;11.43;69.65;101147.03;4977036;28;45723;-77
2022/11/06 04:13:56;;;;;;;;;5.75;2.00;;;;;11.37;69.69;101135.94;4975451;28;45359;-77
2022/11/06 04:16:23;;;;;;;;;5.00;3.00;;;;;11.35;69.69;101129.91;4976747;28;45825;-78
2022/11/06 04:18:48;;;;;;;;;6.00;3.00;;;;;11.30;69.64;101131.75;4959408;28;45422;-77
2022/11/06 04:21:27;;;;;;;;;2.25;1.50;;;;;11.21;69.86;101125.03;4975884;28;67684;-77
2022/11/06 04:27:28;;;;;;;;;3.00;2.25;;;;;11.22;69.77;101131.97;4962063;28;45810;-77
2022/11/06 04:30:02;;;;;;;;;4.50;4.50;;;;;11.23;69.69;101128.44;4976543;28;45443;-77
2022/11/06 04:32:58;;;;;;;;;2.50;2.50;;;;;11.24;70.10;101141.44;4976664;28;45416;-77
2022/11/06 04:35:32;;;;;;;;;3.00;3.00;;;;;11.22;69.80;101135.41;4976255;28;46585;-77
2022/11/06 04:38:07;;;;;;;;;7.75;2.25;;;;;11.20;69.46;101126.78;4976353;28;45730;-77
2022/11/06 04:40:53;;;;;;;;;3.00;3.00;;;;;11.19;69.80;101116.41;4965263;28;45366;-77
2022/11/06 04:43:37;;;;;;;;;4.75;4.75;;;;;11.17;69.87;101128.59;4975059;28;45422;-77
2022/11/06 04:46:04;;;;;;;;;9.00;4.00;;;;;11.15;69.74;101123.44;4976389;28;46295;-78
2022/11/06 04:48:30;;;;;;;;;2.00;2.00;;;;;11.11;69.96;101120.97;4975122;28;45361;-77
2022/11/06 04:50:59;;;;;;;;;3.00;3.00;;;;;11.15;70.13;101126.03;4974714;28;57488;-77
2022/11/06 04:53:25;;;;;;;;;4.50;2.75;;;;;11.16;69.82;101122.56;4975264;28;45554;-78
2022/11/06 04:55:52;;;;;;;;;3.75;3.00;;;;;11.18;69.63;101109.47;4976293;28;46065;-77
2022/11/06 04:58:18;;;;;;;;;4.50;4.50;;;;;11.20;69.75;101118.97;4959641;28;45771;-77
2022/11/06 05:00:46;;;;;;;;;2.50;1.25;;;;;11.20;69.88;101124.19;4975305;28;68174;-77
2022/11/06 05:03:12;;;;;;;;;6.00;3.00;;;;;11.21;69.63;101112.00;4976191;28;45506;-77
2022/11/06 05:05:37;;;;;;;;;3.75;3.00;;;;;11.23;69.64;101111.06;4976071;28;46157;-77
2022/11/06 05:08:03;;;;;;;;;7.00;2.75;;;;;11.27;69.64;101101.41;4978079;28;45320;-77
2022/11/06 05:10:28;;;;;;;;;3.00;2.50;;;;;11.28;69.50;101099.69;4979858;28;45392;-77
2022/11/06 05:12:53;;;;;;;;;1.75;1.75;;;;;11.32;69.80;101099.53;4978870;28;52283;-78
2022/11/06 05:15:19;;;;;;;;;6.00;3.00;;;;;11.35;69.48;101096.03;4978557;28;74925;-78
2022/11/06 05:17:44;;;;;;;;;5.00;3.00;;;;;11.30;69.62;101098.72;4978698;28;68981;-78
2022/11/06 05:20:09;;;;;;;;;2.00;2.00;;;;;11.35;69.62;101106.44;4978850;28;65647;-77
2022/11/06 05:22:59;;;;;;;;;3.50;3.00;;;;;11.32;69.45;101098.69;4961532;28;55908;-77
2022/11/06 05:25:33;;;;;;;;;5.25;3.00;;;;;11.32;69.36;101078.69;4979351;28;47304;-78
2022/11/06 05:27:59;;;;;;;;;6.25;2.75;;;;;11.32;69.37;101077.84;4977835;28;45430;-77
2022/11/06 05:30:25;;;;;;;;;1.50;1.50;;;;;11.32;69.31;101070.03;4979565;28;45340;-77
2022/11/06 05:32:50;;;;;;;;;5.00;3.00;;;;;11.32;69.42;101068.28;4978144;28;45423;-77
2022/11/06 05:35:16;;;;;;;;;6.50;2.75;;;;;11.30;69.10;101062.25;4979149;28;46164;-77
2022/11/06 05:37:42;;;;;;;;;2.75;2.00;;;;;11.30;69.34;101066.59;4978997;28;45332;-77
2022/11/06 05:40:08;;;;;;;;;5.50;4.50;;;;;11.27;69.35;101053.66;4979296;28;45447;-77
2022/11/06 05:42:36;;;;;;;;;4.75;3.00;;;;;11.27;69.26;101059.72;4978883;28;45502;-77
2022/11/06 05:45:01;;;;;;;;;4.75;3.00;;;;;11.26;69.14;101058.00;4979046;28;46319;-77
2022/11/06 05:47:27;;;;;;;;;4.00;3.00;;;;;11.26;69.45;101065.00;4978573;28;60152;-77
2022/11/06 05:49:52;;;;;;;;;2.25;2.00;;;;;11.22;69.22;101056.41;4979334;28;45288;-78
2022/11/06 05:52:17;;;;;;;;;3.50;3.00;;;;;11.27;69.28;101074.50;4978879;28;45714;-77
2022/11/06 05:54:43;;;;;;;;;3.00;1.75;;;;;11.24;68.94;101067.63;4978197;28;68099;-77
2022/11/06 05:57:08;;;;;;;;;2.00;2.00;;;;;11.27;69.32;101067.53;4977587;28;69246;-77
2022/11/06 05:59:33;;;;;;;;;3.50;2.75;;;;;11.29;68.94;101064.88;4978576;28;52247;-77
2022/11/06 06:01:59;;;;;;;;;2.00;2.00;;;;;11.30;69.53;101070.06;4978177;28;64584;-78
2022/11/06 06:04:24;;;;;;;;;9.25;2.50;;;;;11.32;69.31;101054.38;4978607;28;45343;-77
2022/11/06 06:06:50;;;;;;;;;5.50;2.00;;;;;11.31;69.18;101031.81;4978886;28;45436;-77
2022/11/06 06:09:16;;;;;;;;;3.00;3.00;;;;;11.27;69.21;101030.19;4961594;28;45756;-77
2022/11/06 06:11:41;;;;;;;;;5.00;2.50;;;;;11.22;68.86;101038.16;4959776;28;69699;-77
2022/11/06 06:14:07;;;;;;;;;3.75;1.75;;;;;11.24;69.26;101037.19;4961086;28;45643;-77
2022/11/06 06:16:32;;;;;;;;;4.50;1.50;;;;;11.24;68.83;101034.59;4978362;28;54411;-77
2022/11/06 06:18:57;;;;;;;;;5.25;3.00;;;;;11.22;68.63;101025.97;4978327;28;45382;-77
2022/11/06 06:21:23;;;;;;;;;4.50;2.00;;;;;11.18;69.16;101026.97;4978653;28;45367;-78
2022/11/06 06:23:48;;;;;;;;;3.00;2.00;;;;;11.20;68.69;101037.34;4977524;28;65774;-77
2022/11/06 06:26:13;;;;;;;;;4.25;2.00;;;;;11.17;68.65;101030.44;4977204;28;73243;-77
2022/11/06 06:28:39;;;;;;;;;5.25;2.00;;;;;11.18;68.71;101021.75;4978700;28;45438;-77
2022/11/06 06:31:05;;;;;;;;;2.00;2.00;;;;;11.14;68.94;101011.44;4977512;28;69522;-77
2022/11/06 06:33:31;;;;;;;;;3.25;2.00;;;;;11.16;68.76;101001.81;4977087;28;46688;-77
2022/11/06 06:35:56;;;;;;;;;6.00;3.00;;;;;11.17;69.08;100988.75;4977517;28;67995;-77
2022/11/06 06:38:21;;;;;;;;;2.75;2.75;;;;;11.15;68.73;100982.72;4977369;28;64377;-78
2022/11/06 06:40:47;;;;;;;;;3.50;2.00;;;;;11.15;68.51;100989.72;4977966;28;45177;-77
2022/11/06 06:43:12;;;;;;;;;2.00;2.00;;;;;11.12;68.48;100981.97;4977355;28;72743;-77
2022/11/06 06:45:37;;;;;;;;;2.25;2.25;;;;;11.09;68.74;100977.69;4977306;28;72186;-77
2022/11/06 06:48:04;;;;;;;;;1.25;1.25;;;;;11.06;69.25;100980.38;4977640;28;62686;-77
2022/11/06 06:50:29;;;;;;;;;3.25;2.25;;;;;11.07;68.81;100983.84;4978368;28;45351;-77
2022/11/06 06:52:56;;;;;;;;;4.00;3.00;;;;;11.08;69.15;100970.78;4977812;28;45435;-77
2022/11/06 06:55:21;;;;;;;;;2.50;2.00;;;;;11.09;68.79;100966.41;4978292;28;45326;-77
2022/11/06 06:57:47;;;;;;;;;5.25;3.00;;;;;11.09;68.85;100969.00;4977368;28;66362;-77
2022/11/06 07:00:12;;;;;;;;;2.00;2.00;;;;;11.06;68.49;100961.31;4977438;28;60442;-77
2022/11/06 07:02:37;;;;;;;;;7.00;2.00;;;;;11.06;69.08;100959.53;4977707;28;46536;-77
2022/11/06 07:05:03;;;;;;;;;4.50;2.00;;;;;11.02;68.56;100961.38;4977076;28;71996;-78
2022/11/06 07:07:28;;;;;;;;;5.25;3.00;;;;;11.02;68.71;100966.59;4977637;28;45383;-77
2022/11/06 07:09:54;;;;;;;;;6.50;1.50;;;;;10.96;68.55;100961.56;4960450;28;45535;-77
2022/11/06 07:12:19;;;;;;;;;2.50;2.50;;;;;10.98;68.95;100970.16;4976760;28;73804;-78
2022/11/06 07:14:45;;;;;;;;;3.00;2.00;;;;;10.96;68.98;100971.97;4977712;28;45281;-77
2022/11/06 07:17:10;;;;;;;;;1.75;1.75;;;;;10.97;68.67;100976.25;4978034;28;45197;-77
2022/11/06 07:19:35;;;;;;;;;2.25;2.00;;;;;10.97;68.79;100967.59;4977259;28;59008;-77
2022/11/06 07:22:01;;;;;;;;;8.25;4.50;;;;;11.00;68.34;100951.91;4977339;28;46370;-77
2022/11/06 07:24:26;;;;;;;;;7.25;2.75;;;;;11.02;68.23;100956.16;4976655;28;68997;-77
2022/11/06 07:26:51;;;;;;;;;5.00;2.50;;;;;11.02;68.66;100958.78;4977385;28;51353;-77
2022/11/06 07:29:17;;;;;;;;;6.25;2.75;;;;;10.98;68.49;100941.53;4976603;28;60595;-78
2022/11/06 07:31:42;;;;;;;;;7.00;2.00;;;;;10.98;68.53;100941.53;4975995;28;75466;-77
2022/11/06 07:34:08;;;;;;;;;2.75;2.00;;;;;11.01;68.40;100954.47;4976457;28;71721;-77
2022/11/06 07:36:34;;;;;;;;;2.00;2.00;;;;;10.98;68.35;100951.09;4977045;28;45388;-77
2022/11/06 07:38:59;;;;;;;;;2.75;2.00;;;;;10.91;68.22;100929.56;4977467;28;45316;-77
2022/11/06 07:41:25;;;;;;;;;4.75;3.00;;;;;10.98;68.61;100941.53;4976479;28;65033;-77
2022/11/06 07:43:50;;;;;;;;;3.50;3.50;;;;;10.99;68.60;100940.59;4976489;28;69536;-77
2022/11/06 07:46:15;;;;;;;;;4.50;1.75;;;;;10.99;68.43;100939.75;4976842;28;59994;-77
2022/11/06 07:48:41;;;;;;;;;5.00;2.00;;;;;10.97;68.66;100939.81;4976376;28;69492;-77
2022/11/06 07:51:09;;;;;;;;;6.00;2.50;;;;;10.99;68.53;100948.41;4975911;28;75080;-77
2022/11/06 07:53:34;;;;;;;;;3.50;3.50;;;;;11.01;68.34;100943.16;4976008;28;45699;-77
2022/11/06 07:56:00;;;;;;;;;2.50;2.50;;;;;10.99;68.28;100939.75;4975881;28;46659;-77
2022/11/06 07:58:26;;;;;;;;;5.00;2.25;;;;;10.92;68.48;100933.00;4977001;28;45531;-77
2022/11/06 08:00:56;;;;;;;;;2.75;2.00;;;;;11.03;68.65;100938.78;4975775;28;45651;-77
2022/11/06 08:03:23;;;;;;;;;5.25;3.00;;;;;11.05;68.32;100937.00;4976964;28;45768;-77
2022/11/06 08:05:49;;;;;;;;;6.50;2.75;;;;;11.08;68.32;100936.06;4976696;28;45393;-77
2022/11/06 08:08:14;;;;;;;;;4.00;2.00;;;;;11.07;68.21;100937.81;4959614;28;45283;-77
2022/11/06 08:10:42;;;;;;;;;6.00;2.50;;;;;11.07;68.27;100943.03;4975959;28;72687;-77
2022/11/06 08:13:09;;;;;;;;;3.00;3.00;;;;;11.06;68.41;100928.28;4976963;28;45862;-77
2022/11/06 08:15:37;;;;;;;;;8.00;5.00;;;;;11.08;68.89;100928.25;4976954;28;45432;-77
2022/11/06 08:18:03;;;;;;;;;5.25;3.00;;;;;11.05;68.79;100918.78;4976878;28;45411;-77
2022/11/06 08:20:28;;;;;;;;;7.00;3.00;;;;;11.04;69.17;100904.88;4976413;28;47372;-77
2022/11/06 08:22:58;;;;;;;;;2.00;1.75;;;;;11.01;68.93;100918.00;4975562;28;74383;-78
2022/11/06 08:25:23;;;;;;;;;2.25;2.25;;;;;11.00;69.26;100918.03;4976646;28;45355;-78
2022/11/06 08:27:49;;;;;;;;;2.00;2.00;;;;;10.99;69.33;100911.09;4975832;28;70613;-77
2022/11/06 08:30:14;;;;;;;;;5.00;5.00;;;;;10.98;69.23;100914.63;4975850;28;69719;-77
2022/11/06 08:32:39;;;;;;;;;4.50;2.25;;;;;10.97;69.46;100910.31;4976089;28;56788;-77
2022/11/06 08:35:05;;;;;;;;;6.75;3.00;;;;;10.97;69.51;100905.94;4976433;28;45409;-77
2022/11/06 08:37:31;;;;;;;;;2.00;2.00;;;;;11.00;69.42;100913.69;4976210;28;45456;-77
2022/11/06 08:39:56;;;;;;;;;2.50;2.25;;;;;10.97;69.74;100923.31;4976376;28;49819;-77
2022/11/06 08:42:21;;;;;;;;;6.75;3.50;;;;;10.97;71.36;100915.50;4976163;28;45406;-77
2022/11/06 08:44:46;;;;;;;;;5.50;3.00;;;;;10.94;71.16;100918.19;4975781;28;68879;-77
2022/11/06 08:47:12;;;;;;;;;3.00;2.50;;;;;10.90;71.90;100912.25;4975955;28;63055;-77
2022/11/06 08:49:37;;;;;;;;;6.00;3.50;;;;;10.87;71.99;100911.47;4975812;28;52290;-77
2022/11/06 08:52:02;;;;;;;;;6.00;5.00;;;;;10.85;72.39;100914.09;4975680;28;63562;-77
2022/11/06 08:54:28;;;;;;;;;6.50;4.50;;;;;10.80;71.98;100927.25;4976487;28;45342;-78
2022/11/06 08:56:53;;;;;;;;;3.00;3.00;;;;;10.77;73.32;100942.09;4976039;28;47601;-77
2022/11/06 08:59:18;;;;;;;;;5.75;4.50;;;;;10.75;72.35;100947.31;4975326;28;72492;-77
2022/11/06 09:01:44;;;;;;;;;9.25;6.75;;;;;10.76;73.29;100935.19;4975229;28;66967;-78
2022/11/06 09:04:09;;;;;;;;;20.00;13.00;;;;;10.79;73.85;100933.34;4973558;28;67467;-77
2022/11/06 09:06:34;;;;;;;;;20.50;17.50;;;;;10.84;73.57;100928.00;4976370;28;45381;-77
2022/11/06 09:09:00;;;;;;;;;24.75;20.00;;;;;10.87;73.67;100920.13;4974968;28;75286;-77
2022/11/06 09:11:25;;;;;;;;;11.25;9.00;;;;;10.82;73.64;100912.41;4975089;28;71834;-77
2022/11/06 09:13:51;;;;;;;;;9.75;9.25;;;;;10.79;73.86;100898.63;4958160;28;58624;-77
2022/11/06 09:16:16;;;;;;;;;6.00;5.75;;;;;10.81;73.58;100902.06;4976101;28;45512;-77
2022/11/06 09:18:42;;;;;;;;;12.25;10.25;;;;;10.77;74.43;100890.00;4974825;28;69224;-77
2022/11/06 09:21:07;;;;;;;;;19.50;10.50;;;;;10.79;74.60;100883.00;4976094;28;45424;-77
2022/11/06 09:23:33;;;;;;;;;12.00;8.25;;;;;10.73;74.31;100873.63;4975946;28;45376;-77
2022/11/06 09:25:58;;;;;;;;;7.50;7.25;;;;;10.70;74.99;100868.50;4975991;28;45371;-77
2022/11/06 09:28:23;;;;;;;;;10.50;7.00;;;;;10.70;74.99;100857.22;4974876;28;73797;-76
2022/11/06 09:30:49;;;;;;;;;7.75;5.00;;;;;10.70;75.53;100852.88;4974943;28;72900;-77
2022/11/06 09:33:14;;;;;;;;;8.00;6.00;;;;;10.68;75.92;100843.41;4975676;28;45431;-77
2022/11/06 09:35:40;;;;;;;;;10.50;5.75;;;;;10.65;75.61;100840.00;4975108;28;62152;-78
2022/11/06 09:38:10;;;;;;;;;7.50;6.00;;;;;10.64;76.18;100845.22;4975380;28;45384;-77
2022/11/06 09:40:38;;;;;;;;;6.50;6.50;;;;;10.60;76.88;100839.25;4975807;28;45716;-77
2022/11/06 09:43:28;;;;;;;;;10.75;7.25;;;;;10.64;76.20;100850.44;4974635;28;45491;-77
2022/11/06 09:45:54;;;;;;;;;7.50;6.00;;;;;10.66;76.86;100843.47;4975989;28;45232;-77
2022/11/06 09:48:37;;;;;;;;;17.25;11.25;;;;;10.70;76.68;100839.00;4974106;28;45359;-77
2022/11/06 09:51:20;;;;;;;;;7.75;6.00;;;;;10.67;76.67;100846.91;4975688;28;45398;-78
2022/11/06 09:53:50;;;;;;;;;12.75;9.00;;;;;10.61;76.89;100834.91;4977281;28;45335;-78
2022/11/06 09:56:17;;;;;;;;;14.50;11.00;;;;;10.59;77.10;100828.91;4977779;28;45253;-76
2022/11/06 09:58:43;;;;;;;;;11.75;8.50;;;;;10.58;77.09;100825.44;4960448;28;75441;-77
2022/11/06 10:01:21;;;;;;;;;10.25;7.50;;;;;10.55;77.52;100822.06;4978989;28;45400;-76
2022/11/06 10:03:54;;;;;;;;;7.50;7.00;;;;;10.57;77.46;100821.13;4977521;28;45404;-77
2022/11/06 10:06:21;;;;;;;;;11.00;7.00;;;;;10.56;77.27;100811.59;4977748;28;45311;-76
2022/11/06 10:08:47;;;;;;;;;16.25;10.00;;;;;10.57;77.70;100820.28;4978643;28;46523;-76
2022/11/06 10:11:16;;;;;;;;;9.50;7.00;;;;;10.58;77.95;100819.38;4977759;28;71669;-76
2022/11/06 10:14:02;;;;;;;;;10.75;6.50;;;;;10.57;78.19;100818.53;4978680;28;45426;-76
2022/11/06 10:16:33;;;;;;;;;8.00;5.50;;;;;10.57;77.85;100815.09;4978496;28;45481;-76
2022/11/06 10:19:09;;;;;;;;;13.00;8.00;;;;;10.61;78.65;100812.34;4978684;28;46611;-76
2022/11/06 10:21:49;;;;;;;;;10.25;8.75;;;;;10.65;77.88;100800.09;4961202;28;45404;-76
2022/11/06 10:24:46;;;;;;;;;9.00;6.00;;;;;10.69;77.89;100816.47;4978287;28;45383;-76
2022/11/06 10:27:32;;;;;;;;;6.75;3.00;;;;;10.61;77.66;100814.94;4978673;28;45399;-77
2022/11/06 10:30:08;;;;;;;;;9.25;7.00;;;;;10.60;78.03;100814.97;4937311;28;45424;-76
2022/11/06 10:32:52;;;;;;;;;9.50;5.75;;;;;10.60;77.87;100825.41;4921039;28;45470;-76
2022/11/06 10:35:22;;;;;;;;;6.75;2.00;;;;;10.53;78.13;100823.84;4937668;28;45471;-77
2022/11/06 10:38:05;;;;;;;;;7.00;6.00;;;;;10.50;78.31;100823.94;4921203;28;45420;-76
2022/11/06 10:40:31;;;;;;;;;5.50;3.00;;;;;10.42;78.87;100821.56;4921066;28;46235;-77
2022/11/06 10:43:19;;;;;;;;;7.75;5.00;;;;;10.37;79.03;100824.28;4937191;28;45348;-76
2022/11/06 10:45:49;;;;;;;;;5.00;5.00;;;;;10.33;79.20;100804.44;4937135;28;45485;-77
2022/11/06 10:48:26;;;;;;;;;12.75;7.75;;;;;10.27;79.54;100787.22;4921254;28;45360;-76
2022/11/06 10:51:31;;;;;;;;;8.75;6.00;;;;;10.31;79.35;100803.63;4921220;28;45517;-77
2022/11/06 10:54:16;;;;;;;;;9.25;5.50;;;;;10.28;79.79;100814.91;4937107;28;45831;-76
2022/11/06 10:57:06;;;;;;;;;9.75;6.75;;;;;10.29;79.79;100802.78;4917861;28;45527;-77
2022/11/06 10:59:32;;;;;;;;;8.00;6.00;;;;;10.28;80.38;100791.50;4917376;28;45482;-77
2022/11/06 11:01:57;;;;;;;;;10.75;6.75;;;;;10.24;80.40;100787.28;4917619;28;45498;-77
2022/11/06 11:04:22;;;;;;;;;8.50;6.50;;;;;10.28;80.19;100782.84;4917778;28;45364;-77
2022/11/06 11:06:48;;;;;;;;;9.00;5.75;;;;;10.26;80.15;100779.44;4932454;28;66749;-77
2022/11/06 11:09:31;;;;;;;;;10.00;8.50;;;;;10.23;80.54;100774.31;4957586;28;70461;-76
2022/11/06 11:11:57;;;;;;;;;7.00;6.50;;;;;10.20;80.72;100766.63;4941080;28;45473;-76
2022/11/06 11:14:28;;;;;;;;;5.50;5.50;;;;;10.20;80.55;100766.63;4956750;28;45377;-77
2022/11/06 11:16:54;;;;;;;;;16.00;10.00;;;;;10.16;80.50;100765.84;4958467;28;45340;-77
2022/11/06 11:19:35;;;;;;;;;11.75;6.00;;;;;10.15;81.25;100768.47;4957282;28;45392;-77
2022/11/06 11:22:10;;;;;;;;;13.00;9.75;;;;;10.12;81.14;100747.75;4958192;28;46283;-77
2022/11/06 11:24:36;;;;;;;;;22.75;16.25;;;;;10.16;81.09;100725.94;4956933;28;45954;-76
2022/11/06 11:27:03;;;;;;;;;8.25;6.50;;;;;10.16;80.95;100729.41;4956084;28;68081;-77
2022/11/06 11:29:40;;;;;;;;;7.00;7.00;;;;;10.13;80.94;100741.66;4956769;28;45476;-77
2022/11/06 11:32:06;;;;;;;;;6.75;6.25;;;;;10.13;81.40;100749.47;4956814;28;45386;-76
2022/11/06 11:34:34;;;;;;;;;5.50;5.50;;;;;10.12;81.15;100748.59;4956840;28;45288;-77
2022/11/06 11:37:01;;;;;;;;;9.00;6.00;;;;;10.16;81.64;100744.16;4956784;28;45353;-76
2022/11/06 11:39:28;;;;;;;;;9.75;6.50;;;;;10.21;81.58;100739.69;4957328;28;45410;-77
2022/11/06 11:42:23;;;;;;;;;6.75;6.00;;;;;10.21;81.62;100747.50;4977456;28;45354;-76
2022/11/06 11:45:07;;;;;;;;;8.00;3.00;;;;;10.20;81.42;100709.38;4975961;28;45451;-76